createdAt,value
2023-02-11T00:02:12.836Z,68.42
2023-02-11T00:04:39.362Z,68.48
2023-02-11T00:07:06.139Z,67.77
2023-02-11T00:09:35.149Z,67.84
2023-02-11T00:12:01.758Z,68.17
2023-02-11T00:14:28.336Z,68.55
2023-02-11T00:17:03.187Z,68.41
2023-02-11T00:19:29.877Z,68.72
2023-02-11T00:21:56.397Z,69.04
2023-02-11T00:24:23.033Z,69.11
2023-02-11T00:26:49.569Z,69.59
2023-02-11T00:29:18.304Z,69.61
2023-02-11T00:31:45.544Z,69.38
2023-02-11T00:34:12.208Z,69.72
2023-02-11T00:36:38.747Z,69.29
2023-02-11T00:39:05.863Z,69.04
2023-02-11T00:41:34.270Z,69.09
2023-02-11T00:44:02.242Z,69.52
2023-02-11T00:46:29.398Z,69.96
2023-02-11T00:48:57.944Z,68.92
2023-02-11T00:51:25.590Z,69.12
2023-02-11T00:53:54.343Z,69.47
2023-02-11T00:56:21.047Z,69.40
2023-02-11T00:58:47.692Z,69.37
2023-02-11T01:01:14.301Z,69.54
2023-02-11T01:03:42.740Z,69.26
2023-02-11T01:06:09.722Z,69.41
2023-02-11T01:08:38.022Z,68.97
2023-02-11T01:11:06.527Z,69.57
2023-02-11T01:13:34.883Z,69.89
2023-02-11T01:16:01.697Z,69.98
2023-02-11T01:18:28.625Z,70.44
2023-02-11T01:20:55.560Z,70.07
2023-02-11T01:23:23.227Z,69.85
2023-02-11T01:25:50.347Z,70.40
2023-02-11T01:28:18.652Z,70.62
2023-02-11T01:30:45.379Z,70.84
2023-02-11T01:33:12.056Z,70.70
2023-02-11T01:35:41.922Z,71.20
2023-02-11T01:38:13.114Z,71.45
2023-02-11T01:40:39.803Z,71.06
2023-02-11T01:43:06.667Z,71.50
2023-02-11T01:45:48.615Z,71.16
2023-02-11T01:48:21.598Z,71.58
2023-02-11T01:50:50.338Z,72.02
2023-02-11T01:53:36.078Z,71.45
2023-02-11T01:56:23.253Z,71.99
2023-02-11T01:58:51.561Z,72.32
2023-02-11T02:01:20.888Z,72.79
2023-02-11T02:03:52.352Z,73.55
2023-02-11T02:06:30.028Z,73.96
2023-02-11T02:09:01.898Z,73.39
2023-02-11T02:11:29.352Z,73.44
2023-02-11T02:13:55.983Z,73.32
2023-02-11T02:16:26.573Z,73.77
2023-02-11T02:19:11.857Z,73.88
2023-02-11T02:21:59.116Z,73.35
2023-02-11T02:24:42.518Z,72.99
2023-02-11T02:27:18.662Z,73.09
2023-02-11T02:29:50.410Z,73.79
2023-02-11T02:32:35.351Z,73.59
2023-02-11T02:35:11.857Z,73.38
2023-02-11T02:37:41.778Z,73.27
2023-02-11T02:40:11.706Z,74.16
2023-02-11T02:42:42.643Z,74.15
2023-02-11T02:45:11.290Z,73.79
2023-02-11T02:47:37.812Z,75.14
2023-02-11T02:50:05.762Z,75.55
2023-02-11T02:52:36.719Z,75.33
2023-02-11T02:55:09.245Z,76.35
2023-02-11T02:57:42.661Z,75.89
2023-02-11T03:00:18.273Z,76.31
2023-02-11T03:02:52.258Z,76.03
2023-02-11T03:08:11.178Z,77.84
2023-02-11T03:10:40.711Z,78.05
2023-02-11T03:13:07.886Z,77.33
2023-02-11T03:15:37.928Z,77.76
2023-02-11T03:18:06.709Z,77.22
2023-02-11T03:20:36.511Z,78.10
2023-02-11T03:23:11.241Z,77.48
2023-02-11T03:25:41.210Z,78.30
2023-02-11T03:28:21.943Z,78.32
2023-02-11T03:31:08.198Z,78.15
2023-02-11T03:33:49.695Z,78.79
2023-02-11T03:36:19.764Z,78.15
2023-02-11T03:38:48.787Z,78.18
2023-02-11T03:41:18.016Z,78.96
2023-02-11T03:43:47.433Z,79.14
2023-02-11T03:46:16.589Z,79.05
2023-02-11T03:48:51.797Z,79.29
2023-02-11T03:51:20.742Z,79.27
2023-02-11T03:53:47.764Z,79.90
2023-02-11T03:56:17.031Z,80.02
2023-02-11T03:58:47.926Z,80.81
2023-02-11T04:01:15.059Z,81.13
2023-02-11T04:03:41.673Z,80.51
2023-02-11T04:06:08.383Z,80.69
2023-02-11T04:08:42.502Z,79.76
2023-02-11T04:11:09.267Z,80.85
2023-02-11T04:13:35.788Z,80.58
2023-02-11T04:16:02.464Z,80.41
2023-02-11T04:18:31.223Z,81.03
2023-02-11T04:20:57.820Z,81.08
2023-02-11T04:23:24.367Z,81.10
2023-02-11T04:25:51.470Z,80.42
2023-02-11T04:28:18.290Z,80.16
2023-02-11T04:30:44.942Z,80.55
2023-02-11T04:33:11.585Z,80.21
2023-02-11T04:35:38.190Z,79.84
2023-02-11T04:38:04.759Z,80.57
2023-02-11T04:40:31.368Z,80.85
2023-02-11T04:42:57.913Z,81.58
2023-02-11T04:45:24.765Z,81.06
2023-02-11T04:47:51.369Z,81.91
2023-02-11T04:50:17.997Z,82.24
2023-02-11T04:52:44.529Z,81.64
2023-02-11T04:55:14.000Z,82.23
2023-02-11T04:57:40.562Z,82.46
2023-02-11T05:00:08.275Z,82.08
2023-02-11T05:02:34.947Z,82.61
2023-02-11T05:05:01.473Z,82.10
2023-02-11T05:07:28.140Z,83.22
2023-02-11T05:09:54.726Z,82.77
2023-02-11T05:12:21.867Z,82.61
2023-02-11T05:14:48.431Z,82.45
2023-02-11T05:17:15.027Z,83.05
2023-02-11T05:19:41.798Z,82.88
2023-02-11T05:22:08.389Z,83.46
2023-02-11T05:24:34.980Z,83.72
2023-02-11T05:27:02.028Z,84.11
2023-02-11T05:29:28.628Z,83.47
2023-02-11T05:31:55.282Z,83.62
2023-02-11T05:34:21.849Z,84.18
2023-02-11T05:36:48.471Z,83.60
2023-02-11T05:39:15.149Z,84.31
2023-02-11T05:41:41.708Z,85.43
2023-02-11T05:44:08.256Z,84.45
2023-02-11T05:46:34.905Z,84.62
2023-02-11T05:49:01.632Z,84.65
2023-02-11T05:51:28.196Z,84.71
2023-02-11T05:53:54.780Z,85.82
2023-02-11T05:56:21.370Z,85.55
2023-02-11T05:58:47.909Z,85.47
2023-02-11T06:01:14.559Z,85.30
2023-02-11T06:03:41.136Z,85.60
2023-02-11T06:06:13.956Z,85.05
2023-02-11T06:08:40.607Z,85.95
2023-02-11T06:11:07.169Z,86.21
2023-02-11T06:13:33.860Z,85.02
2023-02-11T06:16:01.950Z,85.59
2023-02-11T06:18:29.495Z,84.33
2023-02-11T06:20:56.081Z,84.58
2023-02-11T06:23:22.794Z,86.11
2023-02-11T06:25:49.917Z,85.33
2023-02-11T06:28:16.814Z,86.27
2023-02-11T06:30:43.455Z,85.57
2023-02-11T06:33:10.113Z,85.54
2023-02-11T06:35:39.701Z,86.41
2023-02-11T06:38:06.349Z,85.91
2023-02-11T06:40:32.948Z,85.50
2023-02-11T06:42:59.529Z,84.94
2023-02-11T06:45:28.419Z,84.83
2023-02-11T06:47:55.134Z,85.01
2023-02-11T06:50:21.744Z,85.78
2023-02-11T06:52:48.382Z,86.40
2023-02-11T06:55:15.110Z,85.21
2023-02-11T06:57:44.179Z,84.70
2023-02-11T07:00:11.141Z,83.93
2023-02-11T07:02:37.809Z,84.26
2023-02-11T07:05:05.568Z,83.90
2023-02-11T07:07:34.192Z,84.27
2023-02-11T07:10:04.955Z,83.14
2023-02-11T07:12:31.844Z,84.41
2023-02-11T07:14:58.463Z,83.35
2023-02-11T07:17:25.214Z,84.18
2023-02-11T07:19:51.731Z,83.22
2023-02-11T07:22:18.339Z,82.94
2023-02-11T07:24:44.982Z,83.12
2023-02-11T07:27:11.674Z,83.14
2023-02-11T07:29:40.697Z,83.76
2023-02-11T07:32:07.334Z,83.52
2023-02-11T07:34:34.106Z,83.73
2023-02-11T07:37:00.745Z,83.17
2023-02-11T07:39:27.584Z,84.51
2023-02-11T07:41:54.623Z,84.13
2023-02-11T07:44:23.428Z,83.49
2023-02-11T07:46:50.081Z,83.35
2023-02-11T07:49:16.669Z,84.35
2023-02-11T07:51:47.268Z,83.31
2023-02-11T07:54:16.180Z,82.51
2023-02-11T07:56:42.977Z,83.58
2023-02-11T07:59:12.678Z,82.60
2023-02-11T08:01:39.276Z,82.92
2023-02-11T08:04:05.854Z,83.05
2023-02-11T08:06:33.170Z,82.52
2023-02-11T08:09:04.255Z,83.23
2023-02-11T08:11:30.924Z,84.09
2023-02-11T08:13:59.801Z,84.63
2023-02-11T08:16:27.822Z,82.83
2023-02-11T08:18:56.329Z,83.83
2023-02-11T08:21:23.299Z,83.50
2023-02-11T08:23:49.931Z,83.21
2023-02-11T08:26:18.175Z,83.00
2023-02-11T08:28:45.818Z,83.57
2023-02-11T08:31:16.092Z,83.31
2023-02-11T08:33:42.791Z,83.37
2023-02-11T08:36:16.509Z,83.76
2023-02-11T08:38:48.891Z,83.41
2023-02-11T08:41:15.790Z,82.70
2023-02-11T08:43:43.203Z,83.32
2023-02-11T08:46:12.031Z,82.47
2023-02-11T08:48:38.617Z,82.65
2023-02-11T08:51:24.086Z,82.84
2023-02-11T08:53:51.429Z,83.70
2023-02-11T08:56:18.592Z,82.98
2023-02-11T08:58:45.231Z,83.53
2023-02-11T09:01:22.654Z,83.32
2023-02-11T09:03:52.388Z,83.98
2023-02-11T09:06:19.574Z,83.61
2023-02-11T09:08:53.303Z,83.05
2023-02-11T09:11:21.414Z,83.38
2023-02-11T09:13:48.630Z,84.33
2023-02-11T09:16:22.712Z,84.37
2023-02-11T09:18:49.749Z,83.93
2023-02-11T09:21:16.768Z,83.21
2023-02-11T09:23:47.958Z,83.81
2023-02-11T09:26:26.672Z,83.69
2023-02-11T09:28:53.401Z,82.71
2023-02-11T09:31:21.562Z,82.80
2023-02-11T09:33:49.162Z,83.61
2023-02-11T09:36:17.411Z,83.48
2023-02-11T09:38:44.580Z,83.46
2023-02-11T09:41:23.609Z,83.40
2023-02-11T09:43:54.688Z,83.92
2023-02-11T09:46:22.606Z,84.64
2023-02-11T09:48:50.731Z,84.80
2023-02-11T09:51:23.360Z,84.09
2023-02-11T09:53:51.295Z,84.65
2023-02-11T09:56:18.022Z,84.55
2023-02-11T09:58:45.249Z,84.87
2023-02-11T10:01:21.975Z,85.13
2023-02-11T10:04:00.627Z,84.64
2023-02-11T10:06:39.505Z,85.01
2023-02-11T10:09:24.945Z,84.84
2023-02-11T10:12:04.503Z,85.38
2023-02-11T10:14:46.344Z,85.21
2023-02-11T10:17:36.258Z,85.31
2023-02-11T10:20:22.607Z,86.52
2023-02-11T10:22:50.740Z,86.53
2023-02-11T10:25:19.870Z,86.69
2023-02-11T10:27:46.549Z,86.56
2023-02-11T10:30:20.958Z,86.73
2023-02-11T10:32:56.675Z,87.09
2023-02-11T10:35:24.261Z,87.04
2023-02-11T10:37:50.971Z,86.83
2023-02-11T10:40:28.322Z,86.22
2023-02-11T10:42:58.451Z,86.39
2023-02-11T10:45:27.642Z,86.69
2023-02-11T10:47:55.342Z,87.00
2023-02-11T10:50:28.182Z,87.63
2023-02-11T10:53:11.475Z,87.10
2023-02-11T10:55:38.221Z,86.38
2023-02-11T10:58:05.803Z,87.38
2023-02-11T11:00:42.339Z,88.05
2023-02-11T11:03:23.181Z,86.37
2023-02-11T11:05:57.397Z,87.33
2023-02-11T11:08:41.188Z,87.63
2023-02-11T11:11:09.687Z,88.33
2023-02-11T11:13:37.894Z,88.41
2023-02-11T11:16:13.744Z,88.22
2023-02-11T11:18:41.663Z,88.13
2023-02-11T11:21:13.924Z,88.29
2023-02-11T11:23:47.266Z,87.94
2023-02-11T11:26:17.041Z,87.99
2023-02-11T11:28:46.665Z,88.56
2023-02-11T11:31:15.947Z,88.52
2023-02-11T11:33:46.754Z,89.20
2023-02-11T11:36:20.584Z,88.46
2023-02-11T11:38:58.000Z,88.12
2023-02-11T11:41:26.338Z,88.52
2023-02-11T11:44:11.726Z,89.10
2023-02-11T11:46:41.257Z,88.57
2023-02-11T11:49:26.735Z,88.07
2023-02-11T11:51:59.583Z,88.83
2023-02-11T11:54:31.052Z,88.13
2023-02-11T11:57:02.834Z,88.41
2023-02-11T11:59:30.332Z,88.05
2023-02-11T12:02:08.613Z,87.60
2023-02-11T12:04:41.472Z,88.54
2023-02-11T12:07:31.827Z,87.62
2023-02-11T12:09:58.384Z,87.68
2023-02-11T12:12:46.500Z,87.26
2023-02-11T12:15:28.576Z,87.94
2023-02-11T12:17:55.197Z,87.01
2023-02-11T12:20:21.999Z,88.14
2023-02-11T12:22:59.484Z,86.84
2023-02-11T12:25:35.785Z,86.29
2023-02-11T12:28:10.579Z,86.56
2023-02-11T12:30:48.253Z,86.96
2023-02-11T12:33:15.301Z,86.18
2023-02-11T12:35:56.723Z,86.38
2023-02-11T12:38:28.771Z,86.02
2023-02-11T12:40:55.322Z,85.39
2023-02-11T12:43:30.622Z,85.97
2023-02-11T12:46:02.597Z,85.04
2023-02-11T12:48:54.162Z,86.19
2023-02-11T12:51:20.792Z,85.81
2023-02-11T12:54:04.680Z,86.44
2023-02-11T12:56:53.333Z,86.12
2023-02-11T12:59:41.807Z,85.53
2023-02-11T13:02:16.090Z,86.44
2023-02-11T13:04:46.488Z,86.73
2023-02-11T13:07:16.207Z,88.10
2023-02-11T13:09:46.447Z,86.69
2023-02-11T13:12:32.220Z,86.84
2023-02-11T13:15:02.457Z,86.29
2023-02-11T13:17:33.095Z,86.38
2023-02-11T13:20:03.610Z,86.56
2023-02-11T13:22:40.289Z,87.22
2023-02-11T13:25:19.301Z,86.02
2023-02-11T13:28:09.263Z,86.37
2023-02-11T13:30:41.085Z,86.59
2023-02-11T13:33:19.188Z,87.10
2023-02-11T13:36:08.863Z,87.18
2023-02-11T13:38:36.137Z,86.54
2023-02-11T13:41:02.789Z,86.30
2023-02-11T13:43:36.546Z,86.69
2023-02-11T13:46:07.863Z,86.59
2023-02-11T13:48:36.496Z,86.29
2023-02-11T13:51:05.200Z,85.67
2023-02-11T13:53:45.250Z,86.10
2023-02-11T13:56:12.880Z,85.99
2023-02-11T13:58:50.012Z,85.67
2023-02-11T14:01:35.467Z,85.80
2023-02-11T14:04:39.477Z,85.46
2023-02-11T14:07:43.175Z,86.19
2023-02-11T14:10:31.056Z,86.04
2023-02-11T14:13:27.346Z,86.22
2023-02-11T14:16:09.557Z,84.90
2023-02-11T14:18:38.441Z,85.76
2023-02-11T14:21:11.987Z,85.49
2023-02-11T14:23:39.153Z,85.55
2023-02-11T14:26:21.146Z,85.00
2023-02-11T14:28:53.896Z,85.79
2023-02-11T14:31:24.466Z,85.30
2023-02-11T14:34:10.933Z,84.87
2023-02-11T14:36:46.282Z,85.08
2023-02-11T14:39:26.397Z,85.18
2023-02-11T14:41:54.094Z,85.11
2023-02-11T14:44:22.980Z,85.69
2023-02-11T14:46:50.749Z,85.91
2023-02-11T14:49:29.304Z,86.35
2023-02-11T14:52:17.190Z,86.24
2023-02-11T14:54:45.061Z,84.72
2023-02-11T14:57:16.059Z,85.72
2023-02-11T15:00:11.815Z,85.82
2023-02-11T15:02:39.176Z,85.87
2023-02-11T15:05:29.072Z,86.61
2023-02-11T15:08:02.265Z,87.09
2023-02-11T15:10:35.024Z,85.96
2023-02-11T15:13:02.447Z,86.89
2023-02-11T15:15:29.704Z,87.17
2023-02-11T15:18:01.165Z,88.80
2023-02-11T15:20:29.794Z,88.59
2023-02-11T15:23:01.310Z,89.17
2023-02-11T15:25:28.310Z,89.53
2023-02-11T15:28:01.810Z,89.34
2023-02-11T15:30:30.632Z,90.73
2023-02-11T15:33:03.080Z,89.78
2023-02-11T15:35:31.580Z,89.55
2023-02-11T15:37:59.197Z,90.49
2023-02-11T15:40:28.028Z,89.51
2023-02-11T15:42:58.712Z,88.63
2023-02-11T15:45:31.690Z,89.92
2023-02-11T15:48:01.811Z,89.76
2023-02-11T15:50:32.942Z,89.45
2023-02-11T15:53:02.986Z,90.21
2023-02-11T15:55:30.208Z,89.71
2023-02-11T15:58:00.221Z,89.33
2023-02-11T16:00:37.953Z,88.62
2023-02-11T16:03:04.734Z,89.31
2023-02-11T16:05:33.122Z,89.05
2023-02-11T16:08:00.823Z,89.07
2023-02-11T16:10:31.895Z,89.25
2023-02-11T16:13:07.752Z,88.43
2023-02-11T16:15:34.316Z,88.49
2023-02-11T16:18:07.761Z,88.21
2023-02-11T16:20:34.430Z,88.72
2023-02-11T16:23:03.915Z,87.65
2023-02-11T16:25:30.649Z,87.94
2023-02-11T16:28:02.729Z,88.00
2023-02-11T16:30:31.773Z,87.96
2023-02-11T16:32:58.357Z,88.42
2023-02-11T16:35:24.946Z,87.77
2023-02-11T16:37:53.847Z,88.90
2023-02-11T16:40:20.549Z,88.95
2023-02-11T16:42:47.051Z,88.26
2023-02-11T16:45:17.528Z,88.79
2023-02-11T16:47:45.860Z,89.58
2023-02-11T16:50:20.297Z,91.00
2023-02-11T16:52:47.276Z,91.73
2023-02-11T16:55:15.260Z,90.98
2023-02-11T16:57:42.078Z,92.46
2023-02-11T17:00:16.919Z,92.03
2023-02-11T17:02:43.581Z,92.25
2023-02-11T17:05:16.613Z,92.27
2023-02-11T17:07:45.514Z,93.04
2023-02-11T17:10:15.943Z,92.92
2023-02-11T17:12:42.679Z,93.08
2023-02-11T17:15:09.731Z,92.53
2023-02-11T17:17:36.630Z,91.24
2023-02-11T17:20:03.576Z,93.09
2023-02-11T17:22:30.279Z,92.86
2023-02-11T17:24:57.141Z,92.75
2023-02-11T17:27:25.821Z,92.79
2023-02-11T17:29:52.374Z,92.80
2023-02-11T17:32:21.892Z,93.15
2023-02-11T17:34:48.582Z,93.09
2023-02-11T17:37:15.191Z,93.41
2023-02-11T17:39:44.229Z,92.87
2023-02-11T17:42:11.832Z,93.46
2023-02-11T17:44:38.436Z,92.85
2023-02-11T17:47:05.097Z,92.22
2023-02-11T17:49:31.622Z,92.59
2023-02-11T17:52:01.105Z,92.18
2023-02-11T17:54:27.677Z,91.40
2023-02-11T17:56:57.823Z,92.56
2023-02-11T17:59:26.000Z,92.26
2023-02-11T18:01:52.531Z,92.07
2023-02-11T18:04:21.962Z,92.23
2023-02-11T18:06:48.804Z,93.33
2023-02-11T18:09:15.582Z,93.83
2023-02-11T18:11:44.563Z,93.78
2023-02-11T18:14:11.453Z,93.90
2023-02-11T18:16:39.786Z,92.38
2023-02-11T18:19:07.498Z,93.75
2023-02-11T18:21:34.262Z,93.67
2023-02-11T18:24:06.017Z,93.56
2023-02-11T18:26:32.954Z,93.09
2023-02-11T18:29:00.573Z,92.93
2023-02-11T18:31:27.399Z,93.61
2023-02-11T18:33:54.144Z,94.13
2023-02-11T18:36:21.136Z,93.62
2023-02-11T18:38:47.739Z,93.67
2023-02-11T18:41:17.222Z,93.89
2023-02-11T18:43:43.990Z,94.12
2023-02-11T18:46:20.400Z,94.66
2023-02-11T18:48:49.190Z,92.94
2023-02-11T18:51:18.384Z,93.47
2023-02-11T18:53:46.220Z,94.45
2023-02-11T18:56:14.417Z,93.76
2023-02-11T18:58:41.035Z,94.74
2023-02-11T19:01:15.196Z,94.37
2023-02-11T19:03:42.444Z,94.18
2023-02-11T19:06:20.045Z,94.23
2023-02-11T19:08:47.020Z,94.35
2023-02-11T19:11:16.891Z,94.74
2023-02-11T19:13:45.977Z,94.98
2023-02-11T19:16:21.386Z,93.81
2023-02-11T19:18:48.006Z,93.97
2023-02-11T19:21:14.532Z,93.20
2023-02-11T19:23:41.186Z,93.40
2023-02-11T19:26:07.769Z,94.29
2023-02-11T19:28:37.774Z,94.21
2023-02-11T19:31:05.669Z,95.27
2023-02-11T19:33:32.380Z,95.24
2023-02-11T19:36:02.717Z,95.10
2023-02-11T19:38:29.352Z,95.86
2023-02-11T19:41:03.789Z,95.13
2023-02-11T19:43:30.688Z,95.26
2023-02-11T19:45:57.708Z,95.00
2023-02-11T19:48:29.399Z,94.80
2023-02-11T19:50:56.408Z,95.08
2023-02-11T19:53:23.496Z,94.82
2023-02-11T19:55:50.525Z,94.22
2023-02-11T19:58:17.385Z,94.10
2023-02-11T20:00:44.000Z,93.79
2023-02-11T20:03:10.795Z,94.00
2023-02-11T20:05:39.507Z,95.30
2023-02-11T20:08:13.528Z,93.72
2023-02-11T20:10:40.140Z,94.55
2023-02-11T20:13:06.789Z,94.14
2023-02-11T20:15:33.445Z,94.02
2023-02-11T20:18:00.048Z,94.92
2023-02-11T20:20:26.646Z,94.21
2023-02-11T20:22:55.987Z,93.58
2023-02-11T20:25:22.537Z,94.11
2023-02-11T20:27:52.174Z,94.41
2023-02-11T20:30:21.763Z,93.79
2023-02-11T20:32:48.686Z,93.71
2023-02-11T20:35:15.647Z,94.39
2023-02-11T20:37:44.099Z,94.17
2023-02-11T20:40:11.031Z,94.35
2023-02-11T20:42:38.124Z,94.40
2023-02-11T20:45:04.896Z,93.51
2023-02-11T20:47:31.416Z,93.75
2023-02-11T20:49:58.212Z,95.13
2023-02-11T20:52:24.795Z,94.20
2023-02-11T20:54:51.490Z,94.31
2023-02-11T20:57:18.128Z,94.51
2023-02-11T20:59:44.780Z,94.95
2023-02-11T21:02:13.438Z,94.55
2023-02-11T21:04:40.102Z,94.19
2023-02-11T21:07:06.669Z,96.29
2023-02-11T21:09:33.824Z,95.14
2023-02-11T21:12:00.717Z,95.33
2023-02-11T21:14:29.232Z,95.57
2023-02-11T21:16:55.816Z,94.68
2023-02-11T21:19:22.573Z,94.36
2023-02-11T21:21:49.245Z,94.96
2023-02-11T21:24:16.787Z,94.36
2023-02-11T21:26:43.412Z,93.46
2023-02-11T21:29:10.519Z,93.45
2023-02-11T21:31:37.528Z,94.15
2023-02-11T21:34:04.691Z,93.70
2023-02-11T21:36:31.808Z,93.92
2023-02-11T21:38:58.637Z,94.58
2023-02-11T21:41:25.287Z,94.63
2023-02-11T21:43:52.351Z,94.94
2023-02-11T21:46:19.806Z,95.24
2023-02-11T21:48:49.796Z,95.41
2023-02-11T21:51:18.358Z,95.01
2023-02-11T21:53:45.037Z,94.55
2023-02-11T21:56:16.077Z,95.06
2023-02-11T21:58:42.921Z,95.02
2023-02-11T22:01:10.488Z,96.10
2023-02-11T22:03:39.538Z,94.83
2023-02-11T22:06:07.349Z,94.89
2023-02-11T22:08:33.907Z,94.92
2023-02-11T22:11:07.281Z,94.09
2023-02-11T22:13:34.132Z,94.87
2023-02-11T22:16:08.610Z,94.53
2023-02-11T22:18:35.633Z,96.21
2023-02-11T22:21:13.957Z,95.63
2023-02-11T22:23:47.906Z,95.51
2023-02-11T22:26:19.027Z,95.43
2023-02-11T22:28:45.786Z,95.41
2023-02-11T22:31:28.692Z,94.02
2023-02-11T22:33:55.594Z,93.57
2023-02-11T22:36:23.424Z,94.97
2023-02-11T22:38:52.475Z,94.49
2023-02-11T22:41:19.500Z,93.62
2023-02-11T22:43:48.383Z,93.42
2023-02-11T22:46:17.088Z,93.67
2023-02-11T22:48:44.040Z,93.07
2023-02-11T22:51:12.430Z,93.14
2023-02-11T22:53:39.068Z,92.92
2023-02-11T22:56:07.232Z,93.22
2023-02-11T22:58:34.481Z,92.97
2023-02-11T23:01:01.294Z,92.88
2023-02-11T23:03:28.343Z,92.09
2023-02-11T23:05:55.401Z,90.92
2023-02-11T23:08:22.266Z,89.83
2023-02-11T23:10:49.495Z,90.72
2023-02-11T23:13:16.108Z,90.78
2023-02-11T23:15:43.659Z,91.64
2023-02-11T23:18:10.575Z,91.66
2023-02-11T23:20:38.273Z,91.02
2023-02-11T23:23:05.275Z,92.43
2023-02-11T23:25:32.113Z,93.08
2023-02-11T23:27:58.858Z,91.81
2023-02-11T23:30:25.685Z,92.32
2023-02-11T23:32:52.617Z,92.07
2023-02-11T23:35:23.147Z,92.18
2023-02-11T23:37:52.476Z,92.89
2023-02-11T23:40:19.769Z,92.34
2023-02-11T23:42:47.647Z,93.24
2023-02-11T23:45:14.882Z,92.21
2023-02-11T23:47:41.793Z,92.54
2023-02-11T23:50:09.289Z,92.47
2023-02-11T23:52:36.125Z,91.89
2023-02-11T23:55:02.690Z,92.02
2023-02-11T23:57:31.372Z,92.85
2023-02-11T23:59:57.941Z,92.79
